Time;durP1;ratioP1;P1;durP2;ratioP2;P2;SDS_P1;SDS_P2;PMS_P1;PMS_P2;Temp;Humidity;BMP_temperature;BMP_pressure;BME280_temperature;BME280_humidity;BME280_pressure;Samples;Min_cycle;Max_cycle;Signal;HPM_P1;HPM_P2
2022/01/18 06:06:53;;;;;;;;;;;;;;;3.87;100.00;99624.56;5931155;23;19961;31
2022/01/18 06:09:21;;;;;;;;;;;;;;;3.82;100.00;99633.00;4820400;29;19969;-66
2022/01/18 06:11:49;;;;;;;;;;;;;;;3.86;100.00;99630.44;4827822;29;20322;-67
2022/01/18 06:14:17;;;;;;;;;;;;;;;3.86;100.00;99631.22;4826111;29;19958;-66
2022/01/18 06:16:44;;;;;;;;;;;;;;;3.93;100.00;99628.81;4822628;29;20057;-67
2022/01/18 06:19:13;;;;;;;;;;;;;;;4.03;100.00;99635.19;4827266;29;19958;-67
2022/01/18 06:21:40;;;;;;;;;;;;;;;4.18;100.00;99629.97;4826845;29;19972;-67
2022/01/18 06:24:09;;;;;;;;;;;;;;;4.26;100.00;99626.41;4827644;29;19950;-67
2022/01/18 06:26:49;;;;;;;;;;;;;;;4.29;100.00;99636.84;4827345;29;19958;-68
2022/01/18 06:29:17;;;;;;;;;;;;;;;4.39;100.00;99638.47;4821706;29;20339;-68
2022/01/18 06:31:44;;;;;;;;;;;;;;;4.45;100.00;99639.97;4808673;29;19961;-68
2022/01/18 06:34:14;;;;;;;;;;;;;;;4.49;100.00;99647.31;4823392;29;19965;-67
2022/01/18 06:36:41;;;;;;;;;;;;;;;4.50;100.00;99659.16;4827169;29;19967;-67
2022/01/18 06:39:09;;;;;;;;;;;;;;;4.47;100.00;99662.63;4827154;29;20335;-68
2022/01/18 06:41:37;;;;;;;;;;;;;;;4.54;100.00;99669.31;4826999;29;19959;-68
2022/01/18 06:44:04;;;;;;;;;;;;;;;4.54;100.00;99665.72;4826585;29;19958;-68
2022/01/18 06:46:32;;;;;;;;;;;;;;;4.54;100.00;99660.16;4826685;29;20219;-68
2022/01/18 06:48:59;;;;;;;;;;;;;;;4.65;100.00;99661.47;4825718;29;19973;-68
2022/01/18 06:51:27;;;;;;;;;;;;;;;4.76;100.00;99651.69;4817151;29;19962;-68
2022/01/18 06:53:56;;;;;;;;;;;;;;;4.77;100.00;99658.06;4813220;29;19950;-68
2022/01/18 06:56:25;;;;;;;;;;;;;;;4.81;100.00;99670.13;4815604;29;19965;-67
2022/01/18 06:58:54;;;;;;;;;;;;;;;4.80;100.00;99672.06;4818738;29;20591;-68
2022/01/18 07:01:22;;;;;;;;;;;;;;;4.83;100.00;99673.38;4817769;29;19949;-66
2022/01/18 07:03:49;;;;;;;;;;;;;;;4.88;100.00;99679.56;4803826;29;19968;-68
2022/01/18 07:06:17;;;;;;;;;;;;;;;4.77;100.00;99694.09;4819287;29;19989;-67
2022/01/18 07:08:44;;;;;;;;;;;;;;;4.81;100.00;99670.94;4819189;29;19973;-67
2022/01/18 07:11:13;;;;;;;;;;;;;;;4.82;100.00;99683.63;4817983;29;19964;-72
2022/01/18 07:13:40;;;;;;;;;;;;;;;4.80;100.00;99691.47;4818815;29;19952;-68
2022/01/18 07:16:07;;;;;;;;;;;;;;;4.89;100.00;99688.69;4819727;29;19983;-68
2022/01/18 07:18:35;;;;;;;;;;;;;;;5.08;100.00;99694.72;4820853;29;19961;-68
2022/01/18 07:21:02;;;;;;;;;;;;;;;5.16;100.00;99694.69;4819953;29;19964;-68
2022/01/18 07:23:29;;;;;;;;;;;;;;;5.24;100.00;99698.59;4819888;29;19968;-68
2022/01/18 07:25:58;;;;;;;;;;;;;;;5.47;100.00;99696.44;4819780;29;19961;-68
2022/01/18 07:28:25;;;;;;;;;;;;;;;5.80;100.00;99709.38;4820377;29;19988;-69
2022/01/18 07:30:53;;;;;;;;;;;;;;;6.49;100.00;99715.44;4819363;29;19959;-68
2022/01/18 07:33:20;;;;;;;;;;;;;;;7.27;100.00;99721.22;4819969;29;20256;-68
2022/01/18 07:35:48;;;;;;;;;;;;;;;8.06;100.00;99733.94;4818701;29;19975;-69
2022/01/18 07:38:17;;;;;;;;;;;;;;;8.93;100.00;99726.84;4820484;29;19954;-69
2022/01/18 07:40:46;;;;;;;;;;;;;;;9.23;100.00;99737.34;4819730;29;19974;-68
2022/01/18 07:43:16;;;;;;;;;;;;;;;9.56;100.00;99750.25;4819938;29;19963;-69
2022/01/18 07:45:45;;;;;;;;;;;;;;;10.07;100.00;99751.25;4818764;29;19959;-68
2022/01/18 07:48:12;;;;;;;;;;;;;;;10.45;100.00;99751.44;4820392;29;19969;-69
2022/01/18 07:50:41;;;;;;;;;;;;;;;10.93;100.00;99759.41;4819932;29;19954;-69
2022/01/18 07:53:08;;;;;;;;;;;;;;;11.67;100.00;99763.81;4818449;29;19961;-68
2022/01/18 07:55:35;;;;;;;;;;;;;;;12.37;97.65;99769.97;4818450;29;20452;-70
2022/01/18 07:58:03;;;;;;;;;;;;;;;12.63;91.43;99771.22;4819492;29;20259;-73
2022/01/18 08:00:30;;;;;;;;;;;;;;;14.01;83.37;99769.13;4818828;29;19948;-68
2022/01/18 08:02:58;;;;;;;;;;;;;;;14.02;80.67;99778.38;4821131;29;19956;-68
2022/01/18 08:05:25;;;;;;;;;;;;;;;13.44;82.98;99781.72;4822086;29;19960;-68
2022/01/18 08:07:52;;;;;;;;;;;;;;;11.80;92.70;99786.94;4821620;29;19977;-72
2022/01/18 08:10:20;;;;;;;;;;;;;;;10.78;100.00;99787.44;4822387;29;19952;-68
2022/01/18 08:12:47;;;;;;;;;;;;;;;10.73;100.00;99787.72;4818743;29;19958;-68
2022/01/18 08:15:19;;;;;;;;;;;;;;;11.68;100.00;99792.69;4822215;29;20392;-71
2022/01/18 08:17:50;;;;;;;;;;;;;;;13.42;88.45;99802.94;4826663;29;19980;-67
2022/01/18 08:20:18;;;;;;;;;;;;;;;14.79;80.86;99804.53;4823855;29;20378;-67
2022/01/18 08:22:45;;;;;;;;;;;;;;;15.55;71.35;99804.66;4819281;29;20349;-68
2022/01/18 08:25:14;;;;;;;;;;;;;;;17.61;63.71;99815.88;4819924;29;19954;-68
2022/01/18 08:27:42;;;;;;;;;;;;;;;18.20;58.41;99825.34;4821646;29;19955;-71
2022/01/18 08:30:11;;;;;;;;;;;;;;;19.62;51.01;99828.72;4819065;29;19953;-68
2022/01/18 08:32:38;;;;;;;;;;;;;;;20.01;44.03;99820.56;4819478;29;19950;-72
2022/01/18 08:35:06;;;;;;;;;;;;;;;20.88;40.20;99816.94;4821548;29;19958;-66
2022/01/18 08:37:33;;;;;;;;;;;;;;;20.67;38.09;99822.94;4819815;29;19952;-69
2022/01/18 08:40:01;;;;;;;;;;;;;;;20.23;37.57;99833.28;4802160;29;20422;-69
2022/01/18 08:42:28;;;;;;;;;;;;;;;19.66;38.07;99829.47;4816871;29;19954;-69
2022/01/18 08:44:56;;;;;;;;;;;;;;;19.02;38.47;99827.22;4819305;29;19958;-68
2022/01/18 08:47:24;;;;;;;;;;;;;;;18.13;38.26;99840.34;4818003;29;19957;-68
2022/01/18 08:49:51;;;;;;;;;;;;;;;17.16;39.27;99837.34;4818742;29;19963;-69
2022/01/18 08:52:19;;;;;;;;;;;;;;;16.22;42.26;99833.13;4815222;29;19952;-68
2022/01/18 08:54:46;;;;;;;;;;;;;;;15.29;44.79;99835.88;4816865;29;19948;-68
2022/01/18 08:57:15;;;;;;;;;;;;;;;14.51;49.50;99838.03;4803393;29;19969;-68
2022/01/18 08:59:43;;;;;;;;;;;;;;;13.71;54.97;99839.50;4817066;29;19958;-68
2022/01/18 09:02:11;;;;;;;;;;;;;;;13.26;57.66;99839.63;4805392;29;20346;-68
2022/01/18 09:04:38;;;;;;;;;;;;;;;12.66;61.08;99841.44;4811489;29;19959;-68
2022/01/18 09:07:08;;;;;;;;;;;;;;;12.33;63.59;99844.03;4809237;29;20437;-68
2022/01/18 09:09:38;;;;;;;;;;;;;;;12.13;64.64;99848.84;4819832;29;19971;-68
2022/01/18 09:12:06;;;;;;;;;;;;;;;11.91;65.06;99846.81;4819448;29;19954;-68
2022/01/18 09:14:34;;;;;;;;;;;;;;;11.79;65.57;99856.19;4820979;29;19954;-68
2022/01/18 09:17:01;;;;;;;;;;;;;;;11.59;65.32;99864.91;4819590;29;19977;-68
2022/01/18 09:19:29;;;;;;;;;;;;;;;11.47;68.35;99868.63;4817901;29;19976;-68
2022/01/18 09:21:57;;;;;;;;;;;;;;;11.27;67.60;99866.19;4819683;29;19971;-68
2022/01/18 09:24:25;;;;;;;;;;;;;;;11.02;70.82;99874.78;4803445;29;19948;-68
2022/01/18 09:26:53;;;;;;;;;;;;;;;10.39;89.44;99878.75;4817454;29;20017;-68
2022/01/18 09:29:21;;;;;;;;;;;;;;;9.68;96.85;99871.09;4818016;29;19957;-68
2022/01/18 09:31:48;;;;;;;;;;;;;;;9.80;100.00;99871.06;4821649;29;19959;-68
2022/01/18 09:34:16;;;;;;;;;;;;;;;9.24;100.00;99883.31;4817999;29;20436;-68
2022/01/18 09:36:43;;;;;;;;;;;;;;;9.37;100.00;99884.91;4819099;29;20361;-68
2022/01/18 09:39:10;;;;;;;;;;;;;;;9.61;100.00;99892.44;4816325;29;20282;-68
2022/01/18 09:41:40;;;;;;;;;;;;;;;9.33;100.00;99888.75;4808617;29;19955;-68
2022/01/18 09:44:08;;;;;;;;;;;;;;;9.43;100.00;99885.47;4811176;29;19956;-68
2022/01/18 09:46:36;;;;;;;;;;;;;;;9.37;100.00;99890.47;4811398;29;19954;-68
2022/01/18 09:49:05;;;;;;;;;;;;;;;8.79;100.00;99894.56;4808361;29;20344;-68
2022/01/18 09:51:33;;;;;;;;;;;;;;;8.54;100.00;99892.91;4815316;29;20229;-68
2022/01/18 09:54:00;;;;;;;;;;;;;;;8.97;100.00;99895.16;4811517;29;19959;-68
2022/01/18 09:56:30;;;;;;;;;;;;;;;8.80;100.00;99889.81;4819169;29;19978;-68
2022/01/18 09:58:58;;;;;;;;;;;;;;;8.50;100.00;99900.34;4818564;29;19965;-68
2022/01/18 10:01:25;;;;;;;;;;;;;;;8.63;100.00;99898.41;4818731;29;19966;-68
2022/01/18 10:04:11;;;;;;;;;;;;;;;8.55;100.00;99892.56;4818134;29;19956;-68
2022/01/18 10:06:39;;;;;;;;;;;;;;;8.84;100.00;99899.09;4820593;29;19961;-68
2022/01/18 10:09:11;;;;;;;;;;;;;;;8.82;100.00;99907.00;4825589;29;20264;-68
2022/01/18 10:11:58;;;;;;;;;;;;;;;8.83;100.00;99903.03;4824666;29;19961;-68
2022/01/18 10:14:26;;;;;;;;;;;;;;;9.21;100.00;99909.94;4825265;29;20341;-68
2022/01/18 10:16:53;;;;;;;;;;;;;;;8.56;100.00;99912.88;4822082;29;19970;-68
2022/01/18 10:19:36;;;;;;;;;;;;;;;7.83;100.00;99900.63;4817812;29;20457;-68
2022/01/18 10:22:11;;;;;;;;;;;;;;;7.26;100.00;99900.44;4818350;29;19952;-68
2022/01/18 10:24:39;;;;;;;;;;;;;;;6.85;100.00;99894.75;4816623;29;19988;-68
2022/01/18 10:27:07;;;;;;;;;;;;;;;6.66;100.00;99899.91;4817647;29;20242;-68
2022/01/18 10:29:39;;;;;;;;;;;;;;;6.33;100.00;99903.28;4818849;29;19970;-68
2022/01/18 10:32:31;;;;;;;;;;;;;;;5.56;100.00;99897.81;4816414;29;19961;-68
2022/01/18 10:35:04;;;;;;;;;;;;;;;5.55;100.00;99896.16;4817536;29;19955;-68
2022/01/18 10:37:33;;;;;;;;;;;;;;;5.20;100.00;99900.06;4802565;29;20835;-68
2022/01/18 10:40:15;;;;;;;;;;;;;;;5.07;100.00;99907.38;4818205;29;19957;-68
2022/01/18 10:42:51;;;;;;;;;;;;;;;5.07;100.00;99895.47;4816504;29;20004;-68
2022/01/18 10:45:30;;;;;;;;;;;;;;;5.20;100.00;99897.28;4816469;29;20450;-68
2022/01/18 10:47:59;;;;;;;;;;;;;;;5.08;100.00;99891.56;4817013;29;19962;-68
2022/01/18 10:50:31;;;;;;;;;;;;;;;5.01;100.00;99888.44;4818032;29;19955;-68
2022/01/18 10:53:18;;;;;;;;;;;;;;;5.06;100.00;99878.00;4817217;29;20194;-68
2022/01/18 10:55:50;;;;;;;;;;;;;;;4.88;100.00;99881.88;4815270;29;20763;-68
2022/01/18 10:58:18;;;;;;;;;;;;;;;4.95;100.00;99885.00;4817350;29;20848;-68
2022/01/18 11:00:46;;;;;;;;;;;;;;;4.92;100.00;99890.34;4820288;29;19960;-67
2022/01/18 11:03:14;;;;;;;;;;;;;;;4.90;100.00;99882.38;4824609;29;19957;-67
2022/01/18 11:05:43;;;;;;;;;;;;;;;4.87;100.00;99885.78;4824006;29;19964;-67
2022/01/18 11:08:15;;;;;;;;;;;;;;;4.73;100.00;99887.03;4823900;29;20275;-68
2022/01/18 11:10:43;;;;;;;;;;;;;;;4.89;100.00;99886.28;4824173;29;19951;-68
2022/01/18 11:13:34;;;;;;;;;;;;;;;4.75;100.00;99882.00;4824844;29;19955;-67
2022/01/18 11:16:05;;;;;;;;;;;;;;;4.62;100.00;99883.75;4823632;29;20371;-68
2022/01/18 11:18:36;;;;;;;;;;;;;;;4.70;100.00;99873.81;4823306;29;20356;-68
2022/01/18 11:21:05;;;;;;;;;;;;;;;4.84;100.00;99882.84;4817619;29;19957;-68
2022/01/18 11:23:34;;;;;;;;;;;;;;;4.84;100.00;99893.94;4818516;29;19949;-68
2022/01/18 11:26:01;;;;;;;;;;;;;;;4.90;100.00;99885.16;4796315;29;19964;-68
2022/01/18 11:28:31;;;;;;;;;;;;;;;4.99;100.00;99894.28;4815521;29;19957;-68
2022/01/18 11:30:58;;;;;;;;;;;;;;;4.93;100.00;99892.81;4817151;29;19950;-68
2022/01/18 11:33:27;;;;;;;;;;;;;;;4.92;100.00;99893.94;4819132;29;20259;-68
2022/01/18 11:36:06;;;;;;;;;;;;;;;4.86;100.00;99891.66;4817861;29;19955;-67
2022/01/18 11:38:42;;;;;;;;;;;;;;;5.03;100.00;99895.31;4821460;29;19982;-68
2022/01/18 11:41:21;;;;;;;;;;;;;;;4.78;100.00;99890.50;4821625;29;19961;-68
2022/01/18 11:43:51;;;;;;;;;;;;;;;4.91;100.00;99892.34;4821658;29;19960;-68
2022/01/18 11:46:31;;;;;;;;;;;;;;;4.86;100.00;99894.44;4821598;29;19957;-68
2022/01/18 11:49:00;;;;;;;;;;;;;;;4.68;100.00;99899.09;4820469;29;20464;-68
2022/01/18 11:51:52;;;;;;;;;;;;;;;4.83;100.00;99893.13;4821943;29;19952;-68
2022/01/18 11:54:36;;;;;;;;;;;;;;;4.83;100.00;99906.97;4822273;29;20037;-68
2022/01/18 11:57:04;;;;;;;;;;;;;;;4.95;100.00;99911.91;4822091;29;19952;-68
2022/01/18 11:59:39;;;;;;;;;;;;;;;4.84;100.00;99897.50;4821214;29;19958;-68
2022/01/18 12:02:07;;;;;;;;;;;;;;;4.96;100.00;99905.22;4821757;29;20360;-68
2022/01/18 12:07:08;;;;;;;;;;;;;;;5.17;100.00;99898.75;4822468;29;19978;-68
2022/01/18 12:09:37;;;;;;;;;;;;;;;5.28;100.00;99904.81;4821502;29;19960;-68
2022/01/18 12:12:09;;;;;;;;;;;;;;;5.39;100.00;99905.28;4821152;29;19962;-68
2022/01/18 12:14:36;;;;;;;;;;;;;;;5.42;100.00;99897.16;4821265;29;19963;-68
2022/01/18 12:17:13;;;;;;;;;;;;;;;5.60;100.00;99895.22;4821161;29;20378;-68
2022/01/18 12:19:45;;;;;;;;;;;;;;;5.66;100.00;99899.44;4821637;29;19953;-68
2022/01/18 12:22:12;;;;;;;;;;;;;;;5.67;100.00;99904.66;4821399;29;19974;-68
2022/01/18 12:24:46;;;;;;;;;;;;;;;5.81;100.00;99887.84;4820554;29;20842;-68
2022/01/18 12:27:27;;;;;;;;;;;;;;;6.18;100.00;99891.91;4814307;29;19972;-68
2022/01/18 12:30:25;;;;;;;;;;;;;;;6.33;100.00;99899.72;4809012;29;19957;-68
2022/01/18 12:33:12;;;;;;;;;;;;;;;6.11;100.00;99902.72;4813470;29;19969;-68
2022/01/18 12:35:40;;;;;;;;;;;;;;;6.15;100.00;99900.88;4816204;29;19954;-67
2022/01/18 12:38:10;;;;;;;;;;;;;;;6.24;100.00;99899.72;4805139;29;20812;-68
2022/01/18 12:40:43;;;;;;;;;;;;;;;5.99;100.00;99906.16;4818596;29;19980;-68
2022/01/18 12:45:40;;;;;;;;;;;;;;;6.39;100.00;99901.16;4815654;29;19956;-68
2022/01/18 12:48:13;;;;;;;;;;;;;;;6.53;100.00;99905.34;4811208;29;19958;-68
2022/01/18 12:50:41;;;;;;;;;;;;;;;6.59;100.00;99903.22;4808101;29;19957;-68
2022/01/18 12:53:12;;;;;;;;;;;;;;;6.35;100.00;99897.41;4819385;29;19957;-68
2022/01/18 12:55:44;;;;;;;;;;;;;;;6.28;100.00;99891.56;4820242;29;19954;-68
2022/01/18 12:58:14;;;;;;;;;;;;;;;6.43;100.00;99894.59;4821226;29;19976;-68
2022/01/18 13:00:53;;;;;;;;;;;;;;;6.53;100.00;99890.66;4820946;29;19961;-68
2022/01/18 13:03:20;;;;;;;;;;;;;;;6.39;100.00;99887.25;4821886;29;20475;-68
2022/01/18 13:05:48;;;;;;;;;;;;;;;6.56;100.00;99888.03;4821247;29;20203;-68
2022/01/18 13:08:17;;;;;;;;;;;;;;;6.46;100.00;99885.59;4821883;29;19981;-68
2022/01/18 13:10:47;;;;;;;;;;;;;;;6.68;100.00;99884.53;4821904;29;20643;-68
2022/01/18 13:13:16;;;;;;;;;;;;;;;6.50;100.00;99883.78;4821563;29;20351;-68
2022/01/18 13:26:30;;;;;;;;;;;;;;;6.61;100.00;99884.25;4820355;29;20279;-68
2022/01/18 13:29:08;;;;;;;;;;;;;;;6.32;100.00;99893.34;4821939;29;19956;-68
2022/01/18 13:31:36;;;;;;;;;;;;;;;6.33;100.00;99888.59;4821722;29;19989;-68
2022/01/18 13:34:04;;;;;;;;;;;;;;;6.35;100.00;99892.69;4820004;29;19960;-68
2022/01/18 13:36:33;;;;;;;;;;;;;;;6.38;100.00;99886.44;4821102;29;19953;-68
2022/01/18 13:39:19;;;;;;;;;;;;;;;6.41;100.00;99883.00;4820521;29;20001;-68
2022/01/18 13:41:47;;;;;;;;;;;;;;;6.55;100.00;99882.81;4820314;29;19956;-68
2022/01/18 13:44:14;;;;;;;;;;;;;;;6.62;100.00;99885.88;4820731;29;19969;-68
2022/01/18 13:46:42;;;;;;;;;;;;;;;6.49;100.00;99882.16;4820745;29;19958;-68
2022/01/18 13:49:09;;;;;;;;;;;;;;;6.47;100.00;99889.22;4820323;29;20335;-68
2022/01/18 13:51:37;;;;;;;;;;;;;;;6.32;100.00;99889.75;4820053;29;19956;-68
2022/01/18 13:54:07;;;;;;;;;;;;;;;6.32;100.00;99886.97;4822852;29;19956;-68
2022/01/18 13:56:45;;;;;;;;;;;;;;;6.25;100.00;99884.69;4824589;29;19957;-68
2022/01/18 13:59:12;;;;;;;;;;;;;;;6.32;100.00;99889.75;4825053;29;19993;-68
2022/01/18 14:01:42;;;;;;;;;;;;;;;6.35;100.00;99889.09;4825245;29;20229;-68
2022/01/18 14:04:18;;;;;;;;;;;;;;;6.20;100.00;99889.63;4825472;29;19967;-68
2022/01/18 14:06:46;;;;;;;;;;;;;;;6.13;100.00;99889.31;4824212;29;20257;-68
2022/01/18 14:09:14;;;;;;;;;;;;;;;6.10;100.00;99893.56;4806844;29;19955;-68
2022/01/18 14:11:49;;;;;;;;;;;;;;;6.06;100.00;99889.00;4806883;29;19957;-68
2022/01/18 14:14:24;;;;;;;;;;;;;;;5.97;100.00;99895.38;4806775;29;19951;-68
2022/01/18 14:16:51;;;;;;;;;;;;;;;5.97;100.00;99897.31;4806942;29;19955;-68
2022/01/18 14:19:27;;;;;;;;;;;;;;;5.69;100.00;99896.03;4806060;29;19972;-68
2022/01/18 14:21:55;;;;;;;;;;;;;;;5.81;100.00;99901.72;4802159;29;20694;-68
2022/01/18 14:24:25;;;;;;;;;;;;;;;5.82;100.00;99901.38;4802014;29;19949;-68
2022/01/18 14:26:52;;;;;;;;;;;;;;;5.81;100.00;99896.19;4801486;29;20362;-68
2022/01/18 14:29:22;;;;;;;;;;;;;;;5.87;100.00;99901.25;4791698;29;20058;-68
2022/01/18 14:31:55;;;;;;;;;;;;;;;5.89;100.00;99904.50;4795469;29;19956;-68
2022/01/18 14:34:26;;;;;;;;;;;;;;;5.85;100.00;99905.50;4797624;29;19954;-68
2022/01/18 14:36:55;;;;;;;;;;;;;;;5.87;100.00;99901.25;4800289;29;20250;-68
2022/01/18 14:39:23;;;;;;;;;;;;;;;5.88;100.00;99905.69;4795824;29;19972;-68
2022/01/18 14:42:04;;;;;;;;;;;;;;;6.02;100.00;99899.09;4796273;29;19959;-68
2022/01/18 14:47:25;;;;;;;;;;;;;;;5.70;100.00;99904.00;4797038;29;20030;-68
2022/01/18 14:49:54;;;;;;;;;;;;;;;5.65;100.00;99900.59;4792714;29;19959;-68
2022/01/18 14:52:22;;;;;;;;;;;;;;;5.55;100.00;99896.16;4801336;29;19962;-68
2022/01/18 14:54:50;;;;;;;;;;;;;;;5.52;100.00;99896.84;4803433;29;19966;-68
2022/01/18 14:57:17;;;;;;;;;;;;;;;5.43;100.00;99896.00;4805722;29;19987;-68
2022/01/18 14:59:45;;;;;;;;;;;;;;;5.42;100.00;99899.09;4799815;29;19991;-68
2022/01/18 15:02:12;;;;;;;;;;;;;;;5.28;100.00;99904.81;4801722;29;19962;-68
2022/01/18 15:04:40;;;;;;;;;;;;;;;5.27;100.00;99900.41;4798940;29;19953;-68
2022/01/18 15:07:07;;;;;;;;;;;;;;;5.17;100.00;99903.47;4803496;29;20477;-68
2022/01/18 15:09:35;;;;;;;;;;;;;;;5.11;100.00;99897.25;4815111;29;19963;-68
2022/01/18 15:12:05;;;;;;;;;;;;;;;5.07;100.00;99901.81;4819968;29;20040;-68
2022/01/18 15:14:33;;;;;;;;;;;;;;;5.04;100.00;99905.22;4820345;29;19951;-68
2022/01/18 15:17:01;;;;;;;;;;;;;;;4.93;100.00;99903.09;4822799;29;19961;-68
2022/01/18 15:19:28;;;;;;;;;;;;;;;4.77;100.00;99904.69;4822477;29;19992;-68
2022/01/18 15:21:56;;;;;;;;;;;;;;;4.78;100.00;99907.13;4821861;29;19952;-68
2022/01/18 15:24:24;;;;;;;;;;;;;;;4.84;100.00;99902.25;4821938;29;19965;-68
2022/01/18 15:26:53;;;;;;;;;;;;;;;4.84;100.00;99913.34;4822607;29;20284;-68
2022/01/18 15:29:21;;;;;;;;;;;;;;;4.87;100.00;99907.13;4822422;29;20327;-68
2022/01/18 15:31:48;;;;;;;;;;;;;;;4.78;100.00;99911.84;4814985;29;19962;-68
2022/01/18 15:34:15;;;;;;;;;;;;;;;4.73;100.00;99904.50;4825073;29;19952;-68
2022/01/18 15:36:43;;;;;;;;;;;;;;;4.60;100.00;99906.22;4826999;29;20030;-68
2022/01/18 15:39:10;;;;;;;;;;;;;;;4.46;100.00;99911.06;4827578;29;19988;-68
2022/01/18 15:41:39;;;;;;;;;;;;;;;4.43;100.00;99914.47;4827723;29;19963;-68
2022/01/18 15:44:08;;;;;;;;;;;;;;;4.36;100.00;99913.28;4827318;29;19957;-68
2022/01/18 15:46:35;;;;;;;;;;;;;;;4.35;100.00;99908.88;4827253;29;19948;-68
2022/01/18 15:49:04;;;;;;;;;;;;;;;4.26;100.00;99925.44;4827586;29;19956;-68
2022/01/18 15:51:32;;;;;;;;;;;;;;;4.20;100.00;99914.81;4826652;29;19964;-68
2022/01/18 15:53:59;;;;;;;;;;;;;;;4.14;100.00;99918.84;4821358;29;19954;-68
2022/01/18 15:56:27;;;;;;;;;;;;;;;4.04;100.00;99921.88;4817222;29;19961;-68
2022/01/18 15:58:55;;;;;;;;;;;;;;;3.98;100.00;99922.03;4810140;29;19965;-68
2022/01/18 16:01:23;;;;;;;;;;;;;;;3.95;100.00;99930.13;4818731;29;20430;-68
2022/01/18 16:03:53;;;;;;;;;;;;;;;3.90;100.00;99927.47;4820722;29;20340;-68
2022/01/18 16:06:20;;;;;;;;;;;;;;;3.82;100.00;99925.47;4821315;29;20172;-68
2022/01/18 16:08:49;;;;;;;;;;;;;;;3.77;100.00;99920.88;4826268;29;19987;-68
2022/01/18 16:11:18;;;;;;;;;;;;;;;3.73;100.00;99922.63;4826320;29;19963;-68
2022/01/18 16:13:45;;;;;;;;;;;;;;;3.68;100.00;99925.53;4827392;29;19952;-68
2022/01/18 16:16:13;;;;;;;;;;;;;;;3.76;100.00;99923.97;4826397;29;19957;-68
2022/01/18 16:18:41;;;;;;;;;;;;;;;3.85;100.00;99930.38;4826506;29;19962;-68
2022/01/18 16:21:09;;;;;;;;;;;;;;;3.93;100.00;99933.22;4827029;29;19970;-68
2022/01/18 16:23:38;;;;;;;;;;;;;;;3.97;100.00;99936.16;4825323;29;19956;-68
2022/01/18 16:26:05;;;;;;;;;;;;;;;3.94;100.00;99937.59;4826175;29;19954;-68
2022/01/18 16:28:33;;;;;;;;;;;;;;;3.82;100.00;99942.88;4826738;29;19953;-68
2022/01/18 16:31:01;;;;;;;;;;;;;;;3.72;100.00;99948.66;4826097;29;19970;-68
2022/01/18 16:33:28;;;;;;;;;;;;;;;3.62;100.00;99937.81;4820563;29;19960;-68
2022/01/18 16:35:58;;;;;;;;;;;;;;;3.56;100.00;99950.16;4819241;29;19958;-68
2022/01/18 16:38:26;;;;;;;;;;;;;;;3.53;100.00;99955.47;4820664;29;19950;-68
2022/01/18 16:40:53;;;;;;;;;;;;;;;3.50;100.00;99958.84;4820331;29;19985;-68
2022/01/18 16:43:21;;;;;;;;;;;;;;;3.49;100.00;99960.00;4821285;29;20280;-68
2022/01/18 16:45:48;;;;;;;;;;;;;;;3.47;100.00;99974.16;4820486;29;19957;-68
2022/01/18 16:48:16;;;;;;;;;;;;;;;3.45;100.00;99972.84;4820464;29;19968;-68
2022/01/18 16:50:43;;;;;;;;;;;;;;;3.42;100.00;99967.91;4825629;29;19962;-68
2022/01/18 16:53:11;;;;;;;;;;;;;;;3.41;100.00;99977.31;4823166;29;19960;-68
2022/01/18 16:55:40;;;;;;;;;;;;;;;3.43;100.00;99970.34;4827939;29;19963;-68
2022/01/18 16:58:07;;;;;;;;;;;;;;;3.47;100.00;99976.09;4827183;29;19951;-68
2022/01/18 17:00:34;;;;;;;;;;;;;;;3.50;100.00;99976.28;4827757;29;20026;-68
2022/01/18 17:03:02;;;;;;;;;;;;;;;3.46;100.00;99985.50;4827243;29;19970;-68
2022/01/18 17:05:29;;;;;;;;;;;;;;;3.47;100.00;99976.91;4828300;29;19952;-68
2022/01/18 17:07:57;;;;;;;;;;;;;;;3.52;100.00;99979.53;4826166;29;19979;-68
2022/01/18 17:10:24;;;;;;;;;;;;;;;3.60;100.00;99980.75;4827295;29;19951;-68
2022/01/18 17:12:51;;;;;;;;;;;;;;;3.58;100.00;99986.63;4827835;29;19957;-68
2022/01/18 17:15:19;;;;;;;;;;;;;;;3.60;100.00;99986.28;4821616;29;19980;-67
2022/01/18 17:17:46;;;;;;;;;;;;;;;3.63;100.00;99975.44;4821403;29;19963;-67
2022/01/18 17:20:14;;;;;;;;;;;;;;;3.77;100.00;99984.50;4827155;29;20326;-67
2022/01/18 17:22:42;;;;;;;;;;;;;;;3.89;100.00;99983.94;4827908;29;19970;-68
2022/01/18 17:25:09;;;;;;;;;;;;;;;3.95;100.00;99993.78;4826205;29;19961;-68
2022/01/18 17:27:37;;;;;;;;;;;;;;;4.04;100.00;99993.84;4803039;29;19957;-68
2022/01/18 17:30:05;;;;;;;;;;;;;;;4.10;100.00;99995.38;4806050;29;19957;-68
2022/01/18 17:32:32;;;;;;;;;;;;;;;4.15;100.00;100009.91;4815104;29;20249;-68
2022/01/18 17:34:59;;;;;;;;;;;;;;;4.13;100.00;100014.13;4824847;29;19964;-68
2022/01/18 17:37:26;;;;;;;;;;;;;;;4.15;100.00;100009.09;4827544;29;19965;-68
2022/01/18 17:39:54;;;;;;;;;;;;;;;4.22;100.00;100010.28;4825413;29;19969;-68
2022/01/18 17:42:21;;;;;;;;;;;;;;;4.29;100.00;100012.59;4824647;29;19964;-68
2022/01/18 17:44:49;;;;;;;;;;;;;;;4.32;100.00;100009.22;4825431;29;19971;-68
2022/01/18 17:47:17;;;;;;;;;;;;;;;4.35;100.00;100003.84;4825389;29;19959;-68
2022/01/18 17:49:44;;;;;;;;;;;;;;;4.41;100.00;100005.38;4825554;29;20661;-68
2022/01/18 17:52:12;;;;;;;;;;;;;;;4.47;100.00;100006.06;4826151;29;20241;-68
2022/01/18 17:54:39;;;;;;;;;;;;;;;4.46;100.00;100004.41;4825293;29;19953;-68
2022/01/18 17:57:07;;;;;;;;;;;;;;;4.48;100.00;100018.75;4823946;29;20389;-68
2022/01/18 17:59:35;;;;;;;;;;;;;;;4.49;100.00;100012.91;4824244;29;19968;-68
2022/01/18 18:02:03;;;;;;;;;;;;;;;4.51;100.00;100016.19;4808302;29;19974;-67
2022/01/18 18:04:31;;;;;;;;;;;;;;;4.56;100.00;100018.81;4828659;29;20352;-67
2022/01/18 18:07:11;;;;;;;;;;;;;;;4.59;100.00;100018.19;4825209;29;19980;-67
2022/01/18 18:09:38;;;;;;;;;;;;;;;4.56;100.00;100013.28;4824558;29;20219;-67
2022/01/18 18:12:08;;;;;;;;;;;;;;;4.57;100.00;100009.34;4823650;29;19965;-67
2022/01/18 18:14:37;;;;;;;;;;;;;;;4.57;100.00;100014.09;4821612;29;19962;-67
2022/01/18 18:17:04;;;;;;;;;;;;;;;4.57;100.00;100014.91;4824352;29;19949;-67
2022/01/18 18:19:32;;;;;;;;;;;;;;;4.59;100.00;100018.19;4826914;29;19956;-67
2022/01/18 18:21:59;;;;;;;;;;;;;;;4.62;100.00;100025.06;4824749;29;19973;-67
2022/01/18 18:24:26;;;;;;;;;;;;;;;4.62;100.00;100028.63;4822065;29;19966;-67
2022/01/18 18:26:54;;;;;;;;;;;;;;;4.60;100.00;100027.31;4823529;29;19967;-67
2022/01/18 18:29:21;;;;;;;;;;;;;;;4.58;100.00;100027.63;4825672;29;19959;-67
2022/01/18 18:31:48;;;;;;;;;;;;;;;4.55;100.00;100024.66;4824596;29;19960;-67
2022/01/18 18:34:17;;;;;;;;;;;;;;;4.48;100.00;100024.28;4827184;29;19956;-67
2022/01/18 18:36:44;;;;;;;;;;;;;;;4.45;100.00;100019.41;4825420;29;19956;-67
2022/01/18 18:39:18;;;;;;;;;;;;;;;4.43;100.00;100021.66;4823437;29;19959;-67
2022/01/18 18:42:03;;;;;;;;;;;;;;;4.40;100.00;100023.09;4824073;29;19974;-67
2022/01/18 18:44:31;;;;;;;;;;;;;;;4.37;100.00;100009.91;4823353;29;19969;-67
2022/01/18 18:46:58;;;;;;;;;;;;;;;4.34;100.00;100016.06;4824063;29;19970;-67
2022/01/18 18:49:27;;;;;;;;;;;;;;;4.34;100.00;100026.31;4824750;29;20332;-67
2022/01/18 18:51:54;;;;;;;;;;;;;;;4.30;100.00;100019.78;4824061;29;19955;-67
2022/01/18 18:54:22;;;;;;;;;;;;;;;4.24;100.00;100019.09;4827421;29;19953;-67
2022/01/18 18:56:49;;;;;;;;;;;;;;;4.24;100.00;100027.41;4825233;29;19953;-67
2022/01/18 18:59:21;;;;;;;;;;;;;;;4.23;100.00;100031.28;4823465;29;20420;-67
2022/01/18 19:02:12;;;;;;;;;;;;;;;4.23;100.00;100038.78;4823884;29;19975;-67
2022/01/18 19:04:39;;;;;;;;;;;;;;;4.21;100.00;100044.63;4824065;29;19959;-67
2022/01/18 19:07:06;;;;;;;;;;;;;;;4.18;100.00;100042.47;4822644;29;19988;-67
2022/01/18 19:09:34;;;;;;;;;;;;;;;4.16;100.00;100038.41;4827237;29;19957;-67
2022/01/18 19:12:01;;;;;;;;;;;;;;;4.24;100.00;100030.16;4825502;29;19956;-67
2022/01/18 19:14:32;;;;;;;;;;;;;;;4.29;100.00;100024.50;4826340;29;19961;-67
2022/01/18 19:17:07;;;;;;;;;;;;;;;4.29;100.00;100023.69;4826636;29;19958;-67
2022/01/18 19:19:35;;;;;;;;;;;;;;;4.30;100.00;100015.06;4821802;29;20230;-67
2022/01/18 19:22:03;;;;;;;;;;;;;;;4.35;100.00;100012.16;4825888;29;19994;-67